createdAt,value
2023-06-10T00:34:27.819Z,9.85
2023-06-10T00:36:54.646Z,9.80
2023-06-10T00:39:21.571Z,9.27
2023-06-10T00:41:48.478Z,9.32
2023-06-10T00:44:15.512Z,8.88
2023-06-10T00:46:42.987Z,8.57
2023-06-10T00:49:10.150Z,8.32
2023-06-10T00:51:38.164Z,8.80
2023-06-10T00:54:05.834Z,8.70
2023-06-10T00:56:33.987Z,9.23
2023-06-10T00:59:02.510Z,8.10
2023-06-10T01:01:30.682Z,8.82
2023-06-10T01:03:59.750Z,7.90
2023-06-10T01:07:00.317Z,7.78
2023-06-10T01:09:29.813Z,7.72
2023-06-10T01:12:25.085Z,7.53
2023-06-10T01:14:55.495Z,7.10
2023-06-10T01:17:24.291Z,8.02
2023-06-10T01:19:57.966Z,7.50
2023-06-10T01:22:33.450Z,7.82
2023-06-10T01:25:01.043Z,7.97
2023-06-10T01:27:33.526Z,7.70
2023-06-10T01:30:07.520Z,7.50
2023-06-10T01:32:47.710Z,6.90
2023-06-10T01:35:17.912Z,7.40
2023-06-10T01:37:47.813Z,7.07
2023-06-10T01:40:15.498Z,7.40
2023-06-10T01:42:42.526Z,7.07
2023-06-10T01:45:09.899Z,7.75
2023-06-10T01:47:37.162Z,6.97
2023-06-10T01:52:31.174Z,6.72
2023-06-10T01:54:58.008Z,6.78
2023-06-10T01:57:24.943Z,7.40
2023-06-10T01:59:51.868Z,7.25
2023-06-10T02:02:18.731Z,7.13
2023-06-10T02:04:45.685Z,7.03
2023-06-10T02:07:13.374Z,7.55
2023-06-10T02:09:40.461Z,6.95
2023-06-10T02:12:07.903Z,7.50
2023-06-10T02:14:35.124Z,7.85
2023-06-10T02:17:02.341Z,7.47
2023-06-10T02:19:29.505Z,7.05
2023-06-10T02:21:56.378Z,7.80
2023-06-10T02:24:23.345Z,7.15
2023-06-10T02:26:51.756Z,7.20
2023-06-10T02:29:18.704Z,8.27
2023-06-10T02:31:45.680Z,7.68
2023-06-10T02:34:12.586Z,7.85
2023-06-10T02:36:39.532Z,8.25
2023-06-10T02:39:09.111Z,8.77
2023-06-10T02:41:36.611Z,8.45
2023-06-10T02:44:03.982Z,8.13
2023-06-10T02:46:31.160Z,8.57
2023-06-10T02:48:58.107Z,8.63
2023-06-10T02:51:25.953Z,8.27
2023-06-10T02:53:58.725Z,8.70
2023-06-10T02:56:26.880Z,8.90
2023-06-10T02:58:55.624Z,8.47
2023-06-10T03:01:24.381Z,8.63
2023-06-10T03:04:06.389Z,9.10
2023-06-10T03:06:34.945Z,8.60
2023-06-10T03:09:11.308Z,8.75
2023-06-10T03:11:40.855Z,8.57
2023-06-10T03:14:08.280Z,8.73
2023-06-10T03:19:03.049Z,9.30
2023-06-10T03:21:31.097Z,9.05
2023-06-10T03:23:59.315Z,8.73
2023-06-10T03:26:28.504Z,9.07
2023-06-10T03:28:56.245Z,9.10
2023-06-10T03:31:25.905Z,9.10
2023-06-10T03:33:54.378Z,8.75
2023-06-10T03:36:24.150Z,9.27
2023-06-10T03:38:53.534Z,8.38
2023-06-10T03:41:22.426Z,9.57
2023-06-10T03:43:50.820Z,9.40
2023-06-10T03:46:18.855Z,9.50
2023-06-10T03:48:46.058Z,9.65
2023-06-10T03:51:13.310Z,9.18
2023-06-10T03:53:40.345Z,8.95
2023-06-10T03:56:07.438Z,9.20
2023-06-10T03:58:34.336Z,9.43
2023-06-10T04:13:24.684Z,9.57
2023-06-10T04:15:55.723Z,9.65
2023-06-10T04:33:10.867Z,9.57
2023-06-10T04:52:58.157Z,9.13
2023-06-10T04:55:25.342Z,9.30
2023-06-10T04:57:52.698Z,8.88
2023-06-10T05:00:19.667Z,8.90
2023-06-10T05:02:50.551Z,9.43
2023-06-10T05:12:42.994Z,9.00
2023-06-10T05:15:10.690Z,8.52
2023-06-10T05:17:37.813Z,8.57
2023-06-10T05:20:05.398Z,8.60
2023-06-10T05:22:32.251Z,8.98
2023-06-10T05:24:59.161Z,9.45
2023-06-10T05:27:26.529Z,8.95
2023-06-10T05:29:53.428Z,9.35
2023-06-10T05:32:20.434Z,8.75
2023-06-10T05:37:15.184Z,8.75
2023-06-10T05:39:42.100Z,9.27
2023-06-10T05:42:09.313Z,8.35
2023-06-10T05:44:39.672Z,8.57
2023-06-10T05:47:06.608Z,8.32
2023-06-10T06:04:18.295Z,8.27
2023-06-10T06:51:12.265Z,6.90
2023-06-10T06:53:45.297Z,6.70
2023-06-10T06:56:13.194Z,6.75
2023-06-10T06:58:40.295Z,6.93
2023-06-10T07:01:07.193Z,6.28
2023-06-10T07:03:34.029Z,6.68
2023-06-10T07:06:00.872Z,6.32
2023-06-10T07:08:27.785Z,6.88
2023-06-10T07:10:55.242Z,6.25
2023-06-10T07:13:22.145Z,6.75
2023-06-10T07:15:49.067Z,6.68
2023-06-10T08:59:56.070Z,9.05
2023-06-10T09:14:44.137Z,9.35
2023-06-10T09:17:11.879Z,10.50
2023-06-10T09:19:41.206Z,10.57
2023-06-10T09:22:08.168Z,11.70
2023-06-10T09:24:35.528Z,11.57
2023-06-10T09:27:07.898Z,11.77
2023-06-10T09:29:58.857Z,12.13
2023-06-10T10:12:49.982Z,14.80
2023-06-10T10:20:30.175Z,16.30
2023-06-10T10:43:14.511Z,16.15
2023-06-10T10:53:08.828Z,16.58
2023-06-10T11:21:29.247Z,17.50
2023-06-10T11:34:06.219Z,17.23
2023-06-10T11:36:41.731Z,16.63
2023-06-10T11:39:09.265Z,17.23
2023-06-10T11:41:36.576Z,16.83
2023-06-10T11:44:19.596Z,17.48
2023-06-10T12:04:15.142Z,16.88
2023-06-10T12:09:28.116Z,16.27
2023-06-10T12:25:11.275Z,16.60
2023-06-10T12:55:03.189Z,16.27
2023-06-10T13:07:27.937Z,15.48
2023-06-10T13:27:16.652Z,16.45
2023-06-10T13:29:43.505Z,16.52
2023-06-10T13:42:00.453Z,16.00
2023-06-10T13:46:54.463Z,16.35
2023-06-10T13:49:21.969Z,15.80
2023-06-10T14:21:23.582Z,15.88
2023-06-10T14:23:52.849Z,16.10
2023-06-10T14:26:22.644Z,15.82
2023-06-10T14:28:50.672Z,15.98
2023-06-10T14:31:17.838Z,16.08
2023-06-10T14:33:44.869Z,15.45
2023-06-10T14:38:39.409Z,16.13
2023-06-10T14:41:06.302Z,15.85
2023-06-10T14:43:33.165Z,15.57
2023-06-10T14:46:00.046Z,15.75
2023-06-10T14:48:26.944Z,16.10
2023-06-10T14:50:56.284Z,15.63
2023-06-10T15:22:51.020Z,15.95
2023-06-10T15:25:30.160Z,15.80
2023-06-10T15:27:58.151Z,15.65
2023-06-10T15:30:25.386Z,16.08
2023-06-10T15:32:52.522Z,16.27
2023-06-10T15:35:19.549Z,15.73
2023-06-10T15:37:46.433Z,16.60
2023-06-10T15:40:13.269Z,15.55
2023-06-10T15:45:07.966Z,16.08
2023-06-10T15:59:53.912Z,15.68
2023-06-10T16:02:21.064Z,15.77
2023-06-10T16:04:48.122Z,16.38
2023-06-10T16:07:15.057Z,15.30
2023-06-10T16:24:25.020Z,15.40
2023-06-10T16:26:52.270Z,16.25
2023-06-10T16:29:19.258Z,15.82
2023-06-10T16:31:46.279Z,16.02
2023-06-10T16:34:13.268Z,15.70
2023-06-10T16:36:40.356Z,15.73
2023-06-10T16:39:07.458Z,15.63
2023-06-10T16:41:34.360Z,16.20
2023-06-10T16:44:04.001Z,16.25
2023-06-10T16:46:31.555Z,15.30
2023-06-10T16:58:46.558Z,15.63
2023-06-10T17:01:13.454Z,16.00
2023-06-10T17:03:41.400Z,16.13
2023-06-10T17:08:35.402Z,16.13
2023-06-10T17:11:02.359Z,15.77
2023-06-10T17:23:18.524Z,14.50
2023-06-10T17:25:45.728Z,14.35
2023-06-10T17:47:48.840Z,14.30
2023-06-10T17:52:46.541Z,14.30
2023-06-10T17:55:13.746Z,14.60
2023-06-10T18:00:08.721Z,14.32
2023-06-10T18:02:36.090Z,14.18
2023-06-10T18:05:03.677Z,14.27
2023-06-10T18:10:01.215Z,13.75
2023-06-10T18:12:28.237Z,13.88
2023-06-10T18:17:22.090Z,13.77
2023-06-10T18:19:49.075Z,13.60
2023-06-10T18:22:16.033Z,13.57
2023-06-10T18:24:43.097Z,13.63
2023-06-10T18:27:10.062Z,13.82
2023-06-10T18:29:36.999Z,13.38
2023-06-10T18:32:04.370Z,13.15
2023-06-10T18:34:31.329Z,13.15
2023-06-10T18:39:25.296Z,13.55
2023-06-10T18:46:46.024Z,13.10
2023-06-10T19:03:55.875Z,14.05
2023-06-10T19:08:51.284Z,13.27
2023-06-10T19:13:45.581Z,13.07
2023-06-10T19:16:12.412Z,13.13
2023-06-10T19:21:08.135Z,14.23
2023-06-10T19:23:37.072Z,14.95
2023-06-10T19:26:04.873Z,15.07
2023-06-10T19:28:32.126Z,15.10
2023-06-10T19:38:20.380Z,16.50
2023-06-10T19:53:05.760Z,13.50
2023-06-10T20:00:27.998Z,11.40
2023-06-10T20:15:13.359Z,9.25
2023-06-10T20:17:40.494Z,8.93
2023-06-10T20:20:07.925Z,8.50
2023-06-10T20:22:34.774Z,8.48
2023-06-10T20:25:01.693Z,7.85
2023-06-10T20:27:28.657Z,9.07
2023-06-10T20:29:57.267Z,8.68
2023-06-10T20:32:24.759Z,9.68
2023-06-10T20:34:51.968Z,9.05
2023-06-10T20:37:19.026Z,9.77
2023-06-10T20:39:45.964Z,10.00
2023-06-10T20:42:16.034Z,9.70
2023-06-10T20:44:43.780Z,10.02
2023-06-10T20:47:10.901Z,10.50
2023-06-10T20:49:37.932Z,10.23
2023-06-10T20:52:05.336Z,10.35
2023-06-10T20:54:32.395Z,11.02
2023-06-10T20:56:59.258Z,11.52
2023-06-10T20:59:26.205Z,12.15
2023-06-10T21:01:53.191Z,10.88
2023-06-10T21:04:20.142Z,11.60
2023-06-10T21:06:49.466Z,11.70
2023-06-10T21:09:16.342Z,12.63
2023-06-10T21:11:43.166Z,11.27
2023-06-10T21:14:10.156Z,11.07
2023-06-10T21:16:37.173Z,10.70
2023-06-10T21:19:04.372Z,8.93
2023-06-10T21:21:31.474Z,8.35
2023-06-10T21:23:58.356Z,8.82
2023-06-10T21:26:26.201Z,7.70
2023-06-10T22:03:19.649Z,7.60
2023-06-10T22:05:47.113Z,6.75
2023-06-10T22:08:14.298Z,7.10
2023-06-10T22:10:41.694Z,6.95
2023-06-10T22:13:09.210Z,7.20
2023-06-10T22:18:04.674Z,7.15
2023-06-10T22:20:31.540Z,6.78
2023-06-10T22:32:46.728Z,7.03
2023-06-10T22:42:35.757Z,6.75
2023-06-10T22:45:02.713Z,7.00
2023-06-10T22:47:29.718Z,6.88
2023-06-10T22:49:56.533Z,7.45
2023-06-10T22:52:23.512Z,7.32
2023-06-10T22:54:50.482Z,6.82
2023-06-10T22:57:17.404Z,7.28
2023-06-10T22:59:44.293Z,7.40
2023-06-10T23:02:11.321Z,7.47
2023-06-10T23:04:38.417Z,7.03
2023-06-10T23:07:05.577Z,7.00
2023-06-10T23:09:32.441Z,7.47
2023-06-10T23:11:59.280Z,6.90
2023-06-10T23:14:25.976Z,7.32
2023-06-10T23:19:20.152Z,7.85
2023-06-10T23:21:57.307Z,6.95
2023-06-10T23:24:31.115Z,6.45
2023-06-10T23:26:59.508Z,6.63
2023-06-10T23:29:26.807Z,6.90
2023-06-10T23:31:55.050Z,7.10
2023-06-10T23:34:22.244Z,7.13
2023-06-10T23:36:49.128Z,7.30
2023-06-10T23:39:16.938Z,7.15
2023-06-10T23:41:45.561Z,7.38
2023-06-10T23:44:13.948Z,7.00
2023-06-10T23:46:41.153Z,7.00
2023-06-10T23:49:09.957Z,7.18
2023-06-10T23:51:38.519Z,7.50
2023-06-10T23:54:06.605Z,7.57
2023-06-10T23:56:33.821Z,7.13
